Time;durP1;ratioP1;P1;durP2;ratioP2;P2;SDS_P1;SDS_P2;PMS_P1;PMS_P2;Temp;Humidity;BMP_temperature;BMP_pressure;BME280_temperature;BME280_humidity;BME280_pressure;Samples;Min_cycle;Max_cycle;Signal;HPM_P1;HPM_P2
2021/06/04 12:12:59;;;;;;;5.25;3.90;;;28.90;96.30;;;;;;4523874;23;20231;-70
2021/06/04 12:15:39;;;;;;;7.28;4.00;;;29.10;95.80;;;;;;4985253;28;20210;-72
2021/06/04 12:18:42;;;;;;;7.88;4.70;;;29.20;95.90;;;;;;4992290;28;20669;-71
2021/06/04 12:21:08;;;;;;;10.82;5.28;;;29.20;95.90;;;;;;4972809;28;20207;-71
2021/06/04 12:23:49;;;;;;;6.68;4.65;;;28.80;96.90;;;;;;4972131;28;20210;-70
2021/06/04 12:26:38;;;;;;;8.27;4.40;;;28.70;97.40;;;;;;4971788;28;20213;-72
2021/06/04 12:29:40;;;;;;;7.90;4.50;;;28.40;97.30;;;;;;4976144;28;20230;-72
2021/06/04 12:32:09;;;;;;;7.55;4.78;;;28.10;97.60;;;;;;4976632;28;20209;-72
2021/06/04 12:34:58;;;;;;;6.30;4.43;;;27.70;97.50;;;;;;4976702;28;20211;-71
2021/06/04 12:37:33;;;;;;;5.18;4.13;;;27.90;98.00;;;;;;4976305;28;20207;-72
2021/06/04 12:40:35;;;;;;;7.38;4.75;;;28.10;98.10;;;;;;4976082;28;20238;-71
2021/06/04 12:43:15;;;;;;;6.45;4.40;;;27.80;98.10;;;;;;4976915;28;20210;-75
2021/06/04 12:45:45;;;;;;;7.03;4.18;;;28.00;99.40;;;;;;4975659;28;20207;-74
2021/06/04 12:48:21;;;;;;;7.43;4.45;;;27.90;98.50;;;;;;4976617;28;20662;-72
2021/06/04 12:51:03;;;;;;;8.85;4.70;;;27.70;98.50;;;;;;4976457;28;20206;-73
2021/06/04 12:53:31;;;;;;;6.13;4.10;;;27.60;99.50;;;;;;4976212;28;20211;-75
2021/06/04 12:56:16;;;;;;;10.68;3.22;;;27.60;99.20;;;;;;4976518;28;20207;-77
2021/06/04 12:58:46;;;;;;;8.13;3.00;;;26.80;99.10;;;;;;4974355;28;20227;-76
2021/06/04 13:01:17;;;;;;;9.40;2.90;;;26.30;99.90;;;;;;4976356;28;20558;-74
2021/06/04 13:03:46;;;;;;;18.40;2.65;;;25.90;99.90;;;;;;4975712;28;20764;-76
2021/06/04 13:06:19;;;;;;;6.63;2.40;;;25.10;99.90;;;;;;4985036;28;20208;-78
2021/06/04 13:08:48;;;;;;;7.40;2.33;;;24.10;99.90;;;;;;4977193;28;20704;-81
2021/06/04 13:11:38;;;;;;;5.55;2.72;;;23.10;99.90;;;;;;4976303;28;20210;-72
2021/06/04 13:14:29;;;;;;;5.22;1.30;;;22.00;99.90;;;;;;4975213;28;20225;-71
2021/06/04 13:17:12;;;;;;;5.15;1.83;;;21.00;99.90;;;;;;4975759;28;20223;-78
2021/06/04 13:19:39;;;;;;;2.30;1.20;;;20.50;99.90;;;;;;4975824;28;20246;-76
2021/06/04 13:22:25;;;;;;;2.80;0.97;;;20.10;99.90;;;;;;4975043;28;20659;-73
2021/06/04 13:24:56;;;;;;;3.90;1.10;;;19.90;99.90;;;;;;4975227;28;20210;-75
2021/06/04 13:27:26;;;;;;;2.60;1.77;;;19.70;99.90;;;;;;4976180;28;20203;-73
2021/06/04 13:29:57;;;;;;;3.53;1.60;;;19.60;99.90;;;;;;4975997;28;20228;-72
2021/06/04 13:32:32;;;;;;;2.23;1.27;;;19.50;99.90;;;;;;4976505;28;20295;-72
2021/06/04 13:35:02;;;;;;;2.37;1.30;;;19.30;99.90;;;;;;4976577;28;20202;-71
2021/06/04 13:37:36;;;;;;;1.80;1.20;;;19.20;99.90;;;;;;4977119;28;20211;-72
2021/06/04 13:40:05;;;;;;;4.33;2.57;;;19.00;99.90;;;;;;4976447;28;20567;-72
2021/06/04 13:42:34;;;;;;;4.80;2.27;;;19.00;99.90;;;;;;4976368;28;20207;-72
2021/06/04 13:45:00;;;;;;;8.63;2.60;;;19.00;99.90;;;;;;4976512;28;20645;-73
2021/06/04 13:47:41;;;;;;;5.20;2.63;;;19.00;99.90;;;;;;4975928;28;20226;-73
2021/06/04 13:50:21;;;;;;;4.37;2.20;;;19.00;99.90;;;;;;4976556;28;20294;-72
2021/06/04 13:53:03;;;;;;;2.30;2.00;;;19.00;99.90;;;;;;4976766;28;20207;-73
2021/06/04 13:55:31;;;;;;;2.20;1.70;;;19.10;99.90;;;;;;4976569;28;20212;-72
2021/06/04 13:58:17;;;;;;;3.00;1.60;;;19.20;99.90;;;;;;4976281;28;20203;-73
2021/06/04 14:01:11;;;;;;;2.20;1.80;;;19.70;99.90;;;;;;4976117;28;20234;-72
2021/06/04 14:03:42;;;;;;;2.83;1.73;;;20.30;99.90;;;;;;4975687;28;20211;-72
2021/06/04 14:06:18;;;;;;;3.63;1.37;;;20.90;99.90;;;;;;4984836;28;20679;-73
2021/06/04 14:08:58;;;;;;;2.40;0.90;;;21.40;99.90;;;;;;4995878;28;20237;-72
2021/06/04 14:11:26;;;;;;;1.45;0.90;;;21.70;99.90;;;;;;4976364;28;20203;-75
2021/06/04 14:14:02;;;;;;;0.93;0.60;;;21.70;99.90;;;;;;4974140;28;20230;-73
2021/06/04 14:16:42;;;;;;;2.45;0.60;;;21.60;99.90;;;;;;4975926;28;20669;-73
2021/06/04 14:19:29;;;;;;;0.88;0.73;;;21.70;99.90;;;;;;4975921;28;20274;-73
2021/06/04 14:21:57;;;;;;;0.70;0.52;;;21.90;99.90;;;;;;4975982;28;20665;-73
2021/06/04 14:24:49;;;;;;;1.48;0.90;;;22.10;99.90;;;;;;4975772;28;20214;-73
2021/06/04 14:27:35;;;;;;;0.50;0.47;;;22.40;99.90;;;;;;4976094;28;20216;-73
2021/06/04 14:30:08;;;;;;;1.38;0.68;;;22.60;99.90;;;;;;4975391;28;20323;-73
2021/06/04 14:32:36;;;;;;;0.60;0.60;;;22.80;99.90;;;;;;4975951;28;20207;-73
2021/06/04 14:35:20;;;;;;;0.80;0.50;;;23.10;99.90;;;;;;4975977;28;20211;-73
2021/06/04 14:37:51;;;;;;;3.17;0.77;;;23.40;99.90;;;;;;4974931;28;20203;-71
2021/06/04 14:40:20;;;;;;;0.50;0.38;;;23.80;99.90;;;;;;4974969;28;20239;-72
2021/06/04 14:42:46;;;;;;;0.52;0.40;;;24.00;99.90;;;;;;4976208;28;20211;-73
2021/06/04 14:45:14;;;;;;;0.95;0.40;;;24.30;99.90;;;;;;4975913;28;20215;-72
2021/06/04 14:47:41;;;;;;;0.40;0.30;;;24.70;99.90;;;;;;4975391;28;20211;-72
2021/06/04 14:50:12;;;;;;;1.70;0.52;;;25.00;99.90;;;;;;4975391;28;20228;-72
2021/06/04 14:52:38;;;;;;;0.60;0.40;;;24.80;99.90;;;;;;4974649;28;20207;-72
2021/06/04 14:55:07;;;;;;;0.80;0.50;;;24.60;99.90;;;;;;4975548;28;20218;-72
2021/06/04 14:57:33;;;;;;;1.95;0.57;;;24.40;99.90;;;;;;4975005;28;20691;-72
2021/06/04 15:00:02;;;;;;;0.63;0.40;;;24.40;99.90;;;;;;4974791;28;20250;-72
2021/06/04 15:02:28;;;;;;;0.82;0.60;;;24.50;99.90;;;;;;4975438;28;20207;-72
2021/06/04 15:04:55;;;;;;;1.30;0.60;;;24.70;99.90;;;;;;4975385;28;20215;-72
2021/06/04 15:07:23;;;;;;;0.70;0.55;;;24.90;99.90;;;;;;4994008;28;20207;-72
2021/06/04 15:09:50;;;;;;;1.33;0.70;;;25.10;99.90;;;;;;4988082;28;20228;-71
2021/06/04 15:12:17;;;;;;;1.02;0.50;;;24.70;99.90;;;;;;4975060;28;20207;-72
2021/06/04 15:14:45;;;;;;;0.90;0.50;;;25.00;99.90;;;;;;4974721;28;20306;-71
2021/06/04 15:17:11;;;;;;;1.48;0.65;;;25.30;99.90;;;;;;4974895;28;20211;-71
2021/06/04 15:19:38;;;;;;;0.80;0.45;;;25.30;99.90;;;;;;4974852;28;20250;-71
2021/06/04 15:22:05;;;;;;;1.25;0.60;;;25.40;99.90;;;;;;4974888;28;20218;-71
2021/06/04 15:24:34;;;;;;;0.82;0.52;;;25.60;99.90;;;;;;4974792;28;20203;-72
2021/06/04 15:27:00;;;;;;;1.83;0.60;;;25.80;99.90;;;;;;4975064;28;20207;-72
2021/06/04 15:29:27;;;;;;;0.80;0.60;;;25.90;99.90;;;;;;4974040;28;20732;-73
2021/06/04 15:31:54;;;;;;;1.58;0.80;;;26.00;99.90;;;;;;4975049;28;20215;-72
2021/06/04 15:34:21;;;;;;;0.80;0.60;;;26.00;99.90;;;;;;4974896;28;20254;-76
2021/06/04 15:36:47;;;;;;;0.63;0.50;;;26.00;99.90;;;;;;4975147;28;20214;-71
2021/06/04 15:39:14;;;;;;;1.60;0.60;;;25.90;99.90;;;;;;4974392;28;20246;-72
2021/06/04 15:41:44;;;;;;;0.65;0.60;;;25.80;99.90;;;;;;4974554;28;20212;-71
2021/06/04 15:44:10;;;;;;;0.95;0.60;;;25.70;99.90;;;;;;4974433;28;20207;-73
2021/06/04 15:46:37;;;;;;;0.85;0.60;;;25.30;99.90;;;;;;4974789;28;20211;-71
2021/06/04 15:49:03;;;;;;;0.98;0.55;;;25.10;99.90;;;;;;4974328;28;20303;-74
2021/06/04 15:51:30;;;;;;;1.70;0.73;;;25.00;99.90;;;;;;4974171;28;20674;-71
2021/06/04 15:53:58;;;;;;;1.10;0.73;;;24.90;99.90;;;;;;4974596;28;20207;-73
2021/06/04 15:56:26;;;;;;;1.35;0.60;;;24.70;99.90;;;;;;4974298;28;20674;-73
2021/06/04 15:58:54;;;;;;;1.83;0.70;;;24.60;99.90;;;;;;4973913;28;20277;-71
2021/06/04 16:01:21;;;;;;;2.47;0.82;;;24.70;99.90;;;;;;4973629;28;20211;-71
2021/06/04 16:03:48;;;;;;;1.30;0.70;;;24.60;99.90;;;;;;4974315;28;20661;-72
2021/06/04 16:06:22;;;;;;;1.40;0.80;;;24.60;99.90;;;;;;4982502;28;20213;-72
2021/06/04 16:08:49;;;;;;;0.93;0.60;;;24.30;99.90;;;;;;4993689;28;20221;-72
2021/06/04 16:11:16;;;;;;;0.93;0.63;;;24.40;99.90;;;;;;4975628;28;20281;-72
2021/06/04 16:13:43;;;;;;;1.70;0.80;;;24.50;99.90;;;;;;4974213;28;20661;-71
2021/06/04 16:16:12;;;;;;;1.42;0.82;;;24.60;99.90;;;;;;4973946;28;20692;-71
2021/06/04 16:18:39;;;;;;;1.38;0.80;;;24.50;99.90;;;;;;4973633;28;20281;-71
2021/06/04 16:21:05;;;;;;;1.55;0.80;;;24.40;99.90;;;;;;4973660;28;20293;-72
2021/06/04 16:23:33;;;;;;;0.98;0.77;;;24.40;99.90;;;;;;4974242;28;20294;-71
2021/06/04 16:26:03;;;;;;;1.80;1.02;;;24.40;99.90;;;;;;4973955;28;20721;-73
2021/06/04 16:28:30;;;;;;;1.42;0.90;;;24.30;99.90;;;;;;4973702;28;20211;-72
2021/06/04 16:30:59;;;;;;;3.08;0.90;;;24.10;99.90;;;;;;4974159;28;20250;-72
2021/06/04 16:33:31;;;;;;;0.80;0.80;;;23.80;99.90;;;;;;4973991;28;20208;-71
2021/06/04 16:35:58;;;;;;;3.97;1.17;;;23.50;99.90;;;;;;4974051;28;20618;-71
2021/06/04 16:38:26;;;;;;;2.72;1.70;;;23.30;99.90;;;;;;4973968;28;20203;-73
2021/06/04 16:40:52;;;;;;;1.25;0.90;;;23.10;99.90;;;;;;4973809;28;20262;-72
2021/06/04 16:43:20;;;;;;;4.15;1.20;;;23.00;99.90;;;;;;4973768;28;20265;-72
2021/06/04 16:45:46;;;;;;;2.65;1.55;;;22.80;99.90;;;;;;4973919;28;20215;-71
2021/06/04 16:48:14;;;;;;;3.15;2.00;;;22.50;99.90;;;;;;4974046;28;20211;-72
2021/06/04 16:50:42;;;;;;;11.13;2.45;;;22.00;99.90;;;;;;4973774;28;20211;-74
2021/06/04 16:53:08;;;;;;;4.30;2.50;;;21.80;99.90;;;;;;4973624;28;20207;-75
2021/06/04 16:55:36;;;;;;;4.32;2.45;;;21.60;99.90;;;;;;4973652;28;20203;-75
2021/06/04 16:58:05;;;;;;;6.20;3.13;;;21.40;99.90;;;;;;4973557;28;20252;-74
2021/06/04 17:00:32;;;;;;;6.57;3.25;;;21.10;99.90;;;;;;4973168;28;20322;-74
2021/06/04 17:03:00;;;;;;;4.35;3.03;;;20.80;99.90;;;;;;4974153;28;20261;-76
2021/06/04 17:05:27;;;;;;;4.40;2.65;;;20.70;99.90;;;;;;4976658;28;20732;-74
2021/06/04 17:07:55;;;;;;;5.82;3.00;;;20.60;99.90;;;;;;4992997;28;20218;-73
2021/06/04 17:10:22;;;;;;;5.30;3.58;;;20.50;99.90;;;;;;4982260;28;20234;-76
2021/06/04 17:12:49;;;;;;;8.02;3.40;;;20.50;99.90;;;;;;4972231;28;20215;-75
2021/06/04 17:15:18;;;;;;;7.72;3.47;;;20.40;99.90;;;;;;4950783;28;20306;-73
2021/06/04 17:17:45;;;;;;;7.47;3.70;;;20.40;99.90;;;;;;4939554;29;20690;-74
2021/06/04 17:20:13;;;;;;;4.63;3.33;;;20.50;99.90;;;;;;4966361;28;20653;-77
2021/06/04 17:22:40;;;;;;;7.90;4.10;;;20.40;99.90;;;;;;4975641;28;20215;-74
2021/06/04 17:25:13;;;;;;;7.25;4.35;;;20.30;99.90;;;;;;4975687;28;20214;-72
2021/06/04 17:27:39;;;;;;;7.07;4.67;;;20.00;99.90;;;;;;4975684;28;20274;-74
2021/06/04 17:30:08;;;;;;;8.90;4.37;;;19.80;99.90;;;;;;4975205;28;20330;-74
2021/06/04 17:32:34;;;;;;;7.23;4.00;;;19.40;99.90;;;;;;4975747;28;20211;-72
2021/06/04 17:35:01;;;;;;;8.77;4.40;;;19.10;99.90;;;;;;4976905;28;20238;-74
2021/06/04 17:37:27;;;;;;;6.20;4.00;;;18.90;99.90;;;;;;4976663;28;20215;-72
2021/06/04 17:39:53;;;;;;;8.40;4.17;;;18.80;99.90;;;;;;4977256;28;20239;-72
2021/06/04 17:42:21;;;;;;;6.23;4.40;;;18.80;99.90;;;;;;4976889;28;20243;-72
2021/06/04 17:44:47;;;;;;;6.37;4.13;;;18.90;99.90;;;;;;4976909;28;20233;-72
2021/06/04 17:47:13;;;;;;;8.60;4.77;;;18.90;99.90;;;;;;4976852;28;20208;-71
2021/06/04 17:49:40;;;;;;;7.10;4.83;;;18.90;99.90;;;;;;4976416;28;20701;-72
2021/06/04 17:52:06;;;;;;;7.87;4.70;;;18.80;99.90;;;;;;4976473;28;20218;-71
2021/06/04 17:54:33;;;;;;;8.50;4.63;;;18.80;99.90;;;;;;4976553;28;20218;-72
2021/06/04 17:56:59;;;;;;;5.87;3.83;;;18.80;99.90;;;;;;4976489;28;20665;-71
2021/06/04 17:59:27;;;;;;;7.80;3.93;;;18.80;99.90;;;;;;4976267;28;20231;-72
2021/06/04 18:01:53;;;;;;;5.83;3.83;;;18.80;99.90;;;;;;4976661;28;20211;-72
2021/06/04 18:04:19;;;;;;;6.67;4.47;;;18.80;99.90;;;;;;4976393;28;20609;-72
2021/06/04 18:06:46;;;;;;;5.77;4.03;;;18.80;99.90;;;;;;4976476;28;20610;-71
2021/06/04 18:09:12;;;;;;;5.90;3.73;;;18.80;99.90;;;;;;4977042;28;20273;-72
2021/06/04 18:11:40;;;;;;;6.53;4.27;;;18.80;99.90;;;;;;4976360;28;20203;-71
2021/06/04 18:14:07;;;;;;;7.40;4.57;;;18.90;99.90;;;;;;4976090;28;20219;-72
2021/06/04 18:16:35;;;;;;;6.20;4.07;;;18.90;99.90;;;;;;4976425;28;20213;-72
2021/06/04 18:19:01;;;;;;;7.93;3.67;;;18.90;99.90;;;;;;4976952;28;20706;-72
2021/06/04 18:21:27;;;;;;;7.83;4.17;;;18.90;99.90;;;;;;4976487;28;20618;-72
2021/06/04 18:23:54;;;;;;;5.83;3.67;;;18.70;99.90;;;;;;4976508;28;20207;-72
2021/06/04 18:26:21;;;;;;;6.30;4.43;;;18.80;99.90;;;;;;4976525;28;20203;-72
2021/06/04 18:28:49;;;;;;;7.10;4.07;;;18.90;99.90;;;;;;4975069;28;20313;-72
2021/06/04 18:31:16;;;;;;;5.70;3.73;;;18.90;99.90;;;;;;4976316;28;20301;-72
2021/06/04 18:33:44;;;;;;;5.03;3.83;;;19.00;99.90;;;;;;4976165;28;20210;-72
2021/06/04 18:36:10;;;;;;;7.00;3.87;;;19.00;99.90;;;;;;4976163;28;20554;-72
2021/06/04 18:38:37;;;;;;;7.40;4.80;;;19.10;99.90;;;;;;4976031;28;20289;-72
2021/06/04 18:41:04;;;;;;;6.80;4.10;;;19.20;99.90;;;;;;4975773;28;20238;-72
2021/06/04 18:43:34;;;;;;;5.80;4.00;;;19.30;99.90;;;;;;4975576;28;20555;-72
2021/06/04 18:46:02;;;;;;;8.17;4.37;;;19.40;99.90;;;;;;4975952;28;20287;-72
2021/06/04 18:48:28;;;;;;;6.53;4.20;;;19.40;99.90;;;;;;4975703;28;20658;-72
2021/06/04 18:50:56;;;;;;;4.87;3.53;;;19.50;99.90;;;;;;4975471;28;20215;-72
2021/06/04 18:53:31;;;;;;;6.73;3.87;;;19.50;99.90;;;;;;4975472;28;20666;-72
2021/06/04 18:55:57;;;;;;;5.67;4.10;;;19.50;99.90;;;;;;4975598;28;20276;-72
2021/06/04 18:58:24;;;;;;;6.50;4.27;;;19.50;99.90;;;;;;4975130;28;20532;-72
2021/06/04 19:00:58;;;;;;;6.90;3.87;;;19.50;99.90;;;;;;4975205;28;20243;-72
2021/06/04 19:03:27;;;;;;;5.43;3.83;;;19.50;99.90;;;;;;4975470;28;20251;-72
2021/06/04 19:05:55;;;;;;;6.57;3.77;;;19.40;99.90;;;;;;4975710;28;20214;-72
2021/06/04 19:08:22;;;;;;;9.83;4.47;;;19.50;99.90;;;;;;4974888;28;20207;-72
2021/06/04 19:10:48;;;;;;;6.57;4.17;;;19.50;99.90;;;;;;4975155;28;20261;-72
2021/06/04 19:13:16;;;;;;;5.97;3.97;;;19.60;99.90;;;;;;4975286;28;20254;-72
2021/06/04 19:15:42;;;;;;;6.37;4.27;;;19.60;99.90;;;;;;4975612;28;20208;-72
2021/06/04 19:18:09;;;;;;;6.43;4.00;;;19.60;99.90;;;;;;4974980;28;20207;-72
2021/06/04 19:20:36;;;;;;;5.70;3.67;;;19.60;99.90;;;;;;4974678;28;20259;-72
2021/06/04 19:23:04;;;;;;;6.73;4.00;;;19.50;99.90;;;;;;4974767;28;20306;-72
2021/06/04 19:25:33;;;;;;;6.73;4.60;;;19.40;99.90;;;;;;4975251;28;20207;-72
2021/06/04 19:28:00;;;;;;;5.33;3.93;;;19.40;99.90;;;;;;4974669;28;20214;-72
2021/06/04 19:30:27;;;;;;;5.70;3.70;;;19.50;99.90;;;;;;4974497;28;20602;-71
2021/06/04 19:32:55;;;;;;;6.03;4.17;;;19.40;99.90;;;;;;4974873;28;20212;-72
2021/06/04 19:35:23;;;;;;;5.33;3.80;;;19.50;99.90;;;;;;4974482;28;20207;-72
2021/06/04 19:37:49;;;;;;;7.67;4.50;;;19.40;99.90;;;;;;4975051;28;20211;-72
2021/06/04 19:40:17;;;;;;;7.37;4.33;;;19.40;99.90;;;;;;4974325;28;20771;-72
2021/06/04 19:42:44;;;;;;;5.33;3.97;;;19.30;99.90;;;;;;4974822;28;20207;-72
2021/06/04 19:45:12;;;;;;;6.30;3.87;;;19.30;99.90;;;;;;4974452;28;20677;-72
2021/06/04 19:47:38;;;;;;;7.07;4.60;;;19.20;99.90;;;;;;4974347;28;20661;-72
2021/06/04 19:50:06;;;;;;;6.80;4.67;;;19.20;99.90;;;;;;4974524;28;20227;-72
2021/06/04 19:52:33;;;;;;;7.07;4.40;;;19.20;99.90;;;;;;4974333;28;20217;-72
2021/06/04 19:54:59;;;;;;;5.37;4.07;;;19.20;99.90;;;;;;4974424;28;20215;-72
2021/06/04 19:57:27;;;;;;;7.27;4.53;;;19.20;99.90;;;;;;4974228;28;20245;-72
2021/06/04 19:59:53;;;;;;;6.10;4.40;;;19.20;99.90;;;;;;4973871;28;20257;-72
2021/06/04 20:02:20;;;;;;;7.33;4.17;;;19.10;99.90;;;;;;4974449;28;20211;-72
2021/06/04 20:04:46;;;;;;;7.43;4.67;;;19.10;99.90;;;;;;4974390;28;20684;-72
2021/06/04 20:07:12;;;;;;;6.77;4.03;;;19.10;99.90;;;;;;4974620;28;20213;-72
2021/06/04 20:09:41;;;;;;;6.40;4.63;;;19.10;99.90;;;;;;4974463;28;20227;-72
2021/06/04 20:12:08;;;;;;;8.53;4.70;;;19.10;99.90;;;;;;4974088;28;20736;-72
2021/06/04 20:14:35;;;;;;;7.30;5.07;;;19.10;99.90;;;;;;4973786;28;20233;-72
2021/06/04 20:17:02;;;;;;;8.70;5.00;;;19.10;99.90;;;;;;4974073;28;20211;-72
2021/06/04 20:19:28;;;;;;;10.03;5.27;;;19.10;99.90;;;;;;4974386;28;20313;-72
2021/06/04 20:21:55;;;;;;;8.90;5.77;;;19.00;99.90;;;;;;4974267;28;20209;-72
2021/06/04 20:24:21;;;;;;;9.13;6.30;;;19.10;99.90;;;;;;4974065;28;20207;-72
2021/06/04 20:26:47;;;;;;;10.83;5.73;;;19.10;99.90;;;;;;4973883;28;20222;-72
2021/06/04 20:29:13;;;;;;;11.73;6.20;;;19.10;99.90;;;;;;4974051;28;20678;-72
2021/06/04 20:31:42;;;;;;;10.60;6.07;;;19.10;99.90;;;;;;4973912;28;20217;-72
2021/06/04 20:34:10;;;;;;;11.20;6.80;;;19.00;99.90;;;;;;4973993;28;20207;-71
2021/06/04 20:36:37;;;;;;;11.53;7.40;;;19.00;99.90;;;;;;4974006;28;20223;-72
2021/06/04 20:39:05;;;;;;;11.63;7.17;;;19.10;99.90;;;;;;4974003;28;20234;-72
2021/06/04 20:41:31;;;;;;;15.27;7.60;;;19.10;99.90;;;;;;4974129;28;20263;-72
2021/06/04 20:44:00;;;;;;;12.97;7.00;;;19.10;99.90;;;;;;4973870;28;20207;-71
2021/06/04 20:46:28;;;;;;;12.90;7.93;;;19.10;99.90;;;;;;4974284;28;20234;-72
2021/06/04 20:48:56;;;;;;;14.40;7.90;;;19.10;99.90;;;;;;4974017;28;20238;-72
2021/06/04 20:51:25;;;;;;;13.53;7.73;;;19.20;99.90;;;;;;4975725;28;20211;-72
2021/06/04 20:53:56;;;;;;;14.93;8.33;;;19.20;99.90;;;;;;4977624;28;20277;-72
2021/06/04 20:56:25;;;;;;;14.33;8.33;;;19.20;99.90;;;;;;4977724;28;20245;-72
2021/06/04 20:58:51;;;;;;;15.27;7.80;;;19.20;99.90;;;;;;4977548;28;20242;-72
2021/06/04 21:01:18;;;;;;;12.57;7.90;;;19.30;99.90;;;;;;4977571;28;20239;-72
2021/06/04 21:03:44;;;;;;;14.83;7.77;;;19.20;99.90;;;;;;4977791;28;20686;-72
2021/06/04 21:06:12;;;;;;;17.60;7.40;;;19.20;99.90;;;;;;4977827;28;20207;-72
2021/06/04 21:08:41;;;;;;;14.47;8.33;;;19.20;99.90;;;;;;4977535;28;20231;-72
2021/06/04 21:11:08;;;;;;;14.13;7.70;;;19.20;99.90;;;;;;4977377;28;20245;-71
2021/06/04 21:13:34;;;;;;;13.37;8.03;;;19.30;99.90;;;;;;4977205;28;20223;-71
2021/06/04 21:16:01;;;;;;;14.27;7.93;;;19.30;99.90;;;;;;4977290;28;20209;-71
2021/06/04 21:18:27;;;;;;;14.27;7.90;;;19.30;99.90;;;;;;4977292;28;20214;-71
2021/06/04 21:20:54;;;;;;;14.80;8.27;;;19.30;99.90;;;;;;4977213;28;20235;-71
2021/06/04 21:23:23;;;;;;;14.83;8.37;;;19.30;99.90;;;;;;4977076;28;20689;-71
2021/06/04 21:25:50;;;;;;;17.07;9.30;;;19.40;99.90;;;;;;4977088;28;20578;-70
2021/06/04 21:28:20;;;;;;;13.53;8.93;;;19.50;99.90;;;;;;4976963;28;20207;-71
2021/06/04 21:30:48;;;;;;;23.30;10.93;;;19.60;99.90;;;;;;4977199;28;20203;-71
2021/06/04 21:33:17;;;;;;;24.27;12.27;;;19.60;99.90;;;;;;4976762;28;20211;-71
2021/06/04 21:35:44;;;;;;;26.70;13.13;;;19.60;99.90;;;;;;4977100;28;20207;-72
2021/06/04 21:38:11;;;;;;;30.33;14.90;;;19.60;99.90;;;;;;4977283;28;20290;-71
2021/06/04 21:40:41;;;;;;;29.97;15.27;;;19.60;99.90;;;;;;4977060;28;20326;-72
2021/06/04 21:43:11;;;;;;;29.17;14.47;;;19.60;99.90;;;;;;4976902;28;20314;-71
2021/06/04 21:45:37;;;;;;;31.17;14.73;;;19.40;99.90;;;;;;4977274;28;20261;-72
2021/06/04 21:48:05;;;;;;;34.67;15.57;;;19.30;99.90;;;;;;4976754;28;20207;-71
2021/06/04 21:50:31;;;;;;;30.00;15.53;;;19.30;99.90;;;;;;4971472;28;20223;-70
